sensor_id;sensor_type;location;lat;lon;timestamp;P1;durP1;ratioP1;P2;durP2;ratioP2
77978;SDS011;67169;50.268;8.694;2024-01-30T00:00:45;13.48;;;7.10;;
77978;SDS011;67169;50.268;8.694;2024-01-30T00:03:12;14.85;;;7.47;;
77978;SDS011;67169;50.268;8.694;2024-01-30T00:05:40;14.43;;;7.40;;
77978;SDS011;67169;50.268;8.694;2024-01-30T00:08:06;12.70;;;7.35;;
77978;SDS011;67169;50.268;8.694;2024-01-30T00:10:33;9.23;;;6.68;;
77978;SDS011;67169;50.268;8.694;2024-01-30T00:12:59;10.73;;;6.80;;
77978;SDS011;67169;50.268;8.694;2024-01-30T00:15:26;12.27;;;7.70;;
77978;SDS011;67169;50.268;8.694;2024-01-30T00:17:53;13.27;;;6.50;;
77978;SDS011;67169;50.268;8.694;2024-01-30T00:20:20;10.32;;;6.13;;
77978;SDS011;67169;50.268;8.694;2024-01-30T00:22:48;10.35;;;5.75;;
77978;SDS011;67169;50.268;8.694;2024-01-30T00:25:14;13.80;;;5.75;;
77978;SDS011;67169;50.268;8.694;2024-01-30T00:27:41;10.88;;;6.43;;
77978;SDS011;67169;50.268;8.694;2024-01-30T00:30:08;8.32;;;5.78;;
77978;SDS011;67169;50.268;8.694;2024-01-30T00:32:35;9.00;;;5.90;;
77978;SDS011;67169;50.268;8.694;2024-01-30T00:35:02;12.18;;;6.78;;
77978;SDS011;67169;50.268;8.694;2024-01-30T00:37:29;13.63;;;6.78;;
77978;SDS011;67169;50.268;8.694;2024-01-30T00:39:58;7.55;;;5.43;;
77978;SDS011;67169;50.268;8.694;2024-01-30T00:42:24;8.50;;;5.85;;
77978;SDS011;67169;50.268;8.694;2024-01-30T00:44:51;11.70;;;5.28;;
77978;SDS011;67169;50.268;8.694;2024-01-30T00:47:17;8.77;;;4.97;;
77978;SDS011;67169;50.268;8.694;2024-01-30T00:49:44;10.85;;;6.30;;
77978;SDS011;67169;50.268;8.694;2024-01-30T00:52:11;6.45;;;4.60;;
77978;SDS011;67169;50.268;8.694;2024-01-30T00:54:37;7.72;;;6.10;;
77978;SDS011;67169;50.268;8.694;2024-01-30T00:57:05;7.68;;;4.10;;
77978;SDS011;67169;50.268;8.694;2024-01-30T00:59:32;7.15;;;4.75;;
77978;SDS011;67169;50.268;8.694;2024-01-30T01:01:58;8.77;;;5.45;;
77978;SDS011;67169;50.268;8.694;2024-01-30T01:04:25;8.52;;;4.68;;
77978;SDS011;67169;50.268;8.694;2024-01-30T01:06:52;7.47;;;4.88;;
77978;SDS011;67169;50.268;8.694;2024-01-30T01:09:19;11.80;;;4.95;;
77978;SDS011;67169;50.268;8.694;2024-01-30T01:11:45;8.52;;;5.75;;
77978;SDS011;67169;50.268;8.694;2024-01-30T01:14:14;10.02;;;5.03;;
77978;SDS011;67169;50.268;8.694;2024-01-30T01:16:40;8.80;;;4.70;;
77978;SDS011;67169;50.268;8.694;2024-01-30T01:19:07;9.95;;;4.05;;
77978;SDS011;67169;50.268;8.694;2024-01-30T01:21:34;10.05;;;4.68;;
77978;SDS011;67169;50.268;8.694;2024-01-30T01:24:00;12.73;;;5.47;;
77978;SDS011;67169;50.268;8.694;2024-01-30T01:26:27;8.23;;;4.53;;
77978;SDS011;67169;50.268;8.694;2024-01-30T01:28:53;6.07;;;4.60;;
77978;SDS011;67169;50.268;8.694;2024-01-30T01:31:21;8.57;;;4.85;;
77978;SDS011;67169;50.268;8.694;2024-01-30T01:33:49;7.07;;;4.03;;
77978;SDS011;67169;50.268;8.694;2024-01-30T01:36:16;6.05;;;3.95;;
77978;SDS011;67169;50.268;8.694;2024-01-30T01:38:42;10.15;;;5.50;;
77978;SDS011;67169;50.268;8.694;2024-01-30T01:41:09;8.73;;;4.93;;
77978;SDS011;67169;50.268;8.694;2024-01-30T01:43:35;6.47;;;4.47;;
77978;SDS011;67169;50.268;8.694;2024-01-30T01:46:03;7.40;;;4.70;;
77978;SDS011;67169;50.268;8.694;2024-01-30T01:48:31;5.65;;;4.25;;
77978;SDS011;67169;50.268;8.694;2024-01-30T01:55:51;6.20;;;3.53;;
77978;SDS011;67169;50.268;8.694;2024-01-30T01:58:19;4.63;;;4.03;;
77978;SDS011;67169;50.268;8.694;2024-01-30T02:00:47;6.03;;;4.97;;
77978;SDS011;67169;50.268;8.694;2024-01-30T02:03:14;8.02;;;4.78;;
77978;SDS011;67169;50.268;8.694;2024-01-30T02:05:47;6.25;;;4.30;;
77978;SDS011;67169;50.268;8.694;2024-01-30T02:08:14;5.80;;;4.22;;
77978;SDS011;67169;50.268;8.694;2024-01-30T02:10:41;10.45;;;5.47;;
77978;SDS011;67169;50.268;8.694;2024-01-30T02:13:07;9.52;;;4.75;;
77978;SDS011;67169;50.268;8.694;2024-01-30T02:15:34;7.53;;;4.30;;
77978;SDS011;67169;50.268;8.694;2024-01-30T02:18:01;6.82;;;5.00;;
77978;SDS011;67169;50.268;8.694;2024-01-30T02:20:27;9.93;;;5.38;;
77978;SDS011;67169;50.268;8.694;2024-01-30T02:22:57;8.43;;;4.93;;
77978;SDS011;67169;50.268;8.694;2024-01-30T02:25:32;10.93;;;6.15;;
77978;SDS011;67169;50.268;8.694;2024-01-30T02:27:59;8.32;;;5.40;;
77978;SDS011;67169;50.268;8.694;2024-01-30T02:30:26;11.88;;;4.35;;
77978;SDS011;67169;50.268;8.694;2024-01-30T02:32:52;5.82;;;4.57;;
77978;SDS011;67169;50.268;8.694;2024-01-30T02:35:19;7.95;;;6.05;;
77978;SDS011;67169;50.268;8.694;2024-01-30T02:37:45;7.20;;;4.95;;
77978;SDS011;67169;50.268;8.694;2024-01-30T02:40:14;11.18;;;5.35;;
77978;SDS011;67169;50.268;8.694;2024-01-30T02:42:41;8.15;;;4.32;;
77978;SDS011;67169;50.268;8.694;2024-01-30T02:45:08;6.93;;;4.47;;
77978;SDS011;67169;50.268;8.694;2024-01-30T02:47:36;9.45;;;5.18;;
77978;SDS011;67169;50.268;8.694;2024-01-30T02:50:02;6.68;;;4.68;;
77978;SDS011;67169;50.268;8.694;2024-01-30T02:52:29;9.68;;;4.90;;
77978;SDS011;67169;50.268;8.694;2024-01-30T02:54:56;7.38;;;3.95;;
77978;SDS011;67169;50.268;8.694;2024-01-30T02:57:24;6.35;;;4.38;;
77978;SDS011;67169;50.268;8.694;2024-01-30T02:59:50;8.20;;;5.32;;
77978;SDS011;67169;50.268;8.694;2024-01-30T03:02:17;12.80;;;6.03;;
77978;SDS011;67169;50.268;8.694;2024-01-30T03:04:44;9.82;;;5.15;;
77978;SDS011;67169;50.268;8.694;2024-01-30T03:07:10;8.45;;;4.85;;
77978;SDS011;67169;50.268;8.694;2024-01-30T03:09:37;5.43;;;4.50;;
77978;SDS011;67169;50.268;8.694;2024-01-30T03:12:04;7.88;;;5.80;;
77978;SDS011;67169;50.268;8.694;2024-01-30T03:14:32;13.13;;;4.47;;
77978;SDS011;67169;50.268;8.694;2024-01-30T03:16:59;8.57;;;5.40;;
77978;SDS011;67169;50.268;8.694;2024-01-30T03:19:25;9.90;;;4.38;;
77978;SDS011;67169;50.268;8.694;2024-01-30T03:21:52;7.25;;;4.60;;
77978;SDS011;67169;50.268;8.694;2024-01-30T03:24:18;7.72;;;5.22;;
77978;SDS011;67169;50.268;8.694;2024-01-30T03:26:45;17.55;;;4.80;;
77978;SDS011;67169;50.268;8.694;2024-01-30T03:29:15;8.18;;;4.93;;
77978;SDS011;67169;50.268;8.694;2024-01-30T03:31:46;6.50;;;4.30;;
77978;SDS011;67169;50.268;8.694;2024-01-30T03:34:13;7.32;;;4.25;;
77978;SDS011;67169;50.268;8.694;2024-01-30T03:36:39;5.60;;;4.22;;
77978;SDS011;67169;50.268;8.694;2024-01-30T03:39:06;7.93;;;4.22;;
77978;SDS011;67169;50.268;8.694;2024-01-30T03:41:33;8.20;;;5.72;;
77978;SDS011;67169;50.268;8.694;2024-01-30T03:43:59;7.72;;;5.15;;
77978;SDS011;67169;50.268;8.694;2024-01-30T03:46:26;13.70;;;4.55;;
77978;SDS011;67169;50.268;8.694;2024-01-30T03:48:54;7.28;;;5.13;;
77978;SDS011;67169;50.268;8.694;2024-01-30T03:51:20;8.25;;;5.28;;
77978;SDS011;67169;50.268;8.694;2024-01-30T03:53:48;9.48;;;6.55;;
77978;SDS011;67169;50.268;8.694;2024-01-30T03:56:14;9.50;;;4.68;;
77978;SDS011;67169;50.268;8.694;2024-01-30T03:58:41;7.75;;;4.65;;
77978;SDS011;67169;50.268;8.694;2024-01-30T04:01:07;7.82;;;6.20;;
77978;SDS011;67169;50.268;8.694;2024-01-30T04:03:38;13.50;;;4.43;;
77978;SDS011;67169;50.268;8.694;2024-01-30T04:06:06;7.32;;;3.25;;
77978;SDS011;67169;50.268;8.694;2024-01-30T04:08:33;6.00;;;4.68;;
77978;SDS011;67169;50.268;8.694;2024-01-30T04:11:02;8.15;;;5.15;;
77978;SDS011;67169;50.268;8.694;2024-01-30T04:13:30;10.10;;;4.75;;
77978;SDS011;67169;50.268;8.694;2024-01-30T04:15:58;7.95;;;5.15;;
77978;SDS011;67169;50.268;8.694;2024-01-30T04:18:25;7.18;;;4.43;;
77978;SDS011;67169;50.268;8.694;2024-01-30T04:20:51;10.98;;;6.38;;
77978;SDS011;67169;50.268;8.694;2024-01-30T04:23:19;6.55;;;4.32;;
77978;SDS011;67169;50.268;8.694;2024-01-30T04:25:46;14.90;;;5.82;;
77978;SDS011;67169;50.268;8.694;2024-01-30T04:28:12;10.52;;;5.90;;
77978;SDS011;67169;50.268;8.694;2024-01-30T04:30:39;8.18;;;4.68;;
77978;SDS011;67169;50.268;8.694;2024-01-30T04:33:06;8.68;;;6.13;;
77978;SDS011;67169;50.268;8.694;2024-01-30T04:35:32;10.07;;;6.55;;
77978;SDS011;67169;50.268;8.694;2024-01-30T04:37:59;8.38;;;5.47;;
77978;SDS011;67169;50.268;8.694;2024-01-30T04:40:27;6.80;;;4.97;;
77978;SDS011;67169;50.268;8.694;2024-01-30T04:42:53;7.65;;;4.97;;
77978;SDS011;67169;50.268;8.694;2024-01-30T04:45:20;10.93;;;6.63;;
77978;SDS011;67169;50.268;8.694;2024-01-30T04:47:46;9.98;;;4.82;;
77978;SDS011;67169;50.268;8.694;2024-01-30T04:50:13;10.73;;;5.97;;
77978;SDS011;67169;50.268;8.694;2024-01-30T04:52:39;8.13;;;5.75;;
77978;SDS011;67169;50.268;8.694;2024-01-30T04:55:06;11.85;;;6.28;;
77978;SDS011;67169;50.268;8.694;2024-01-30T04:57:35;6.57;;;4.57;;
77978;SDS011;67169;50.268;8.694;2024-01-30T05:00:01;8.70;;;5.32;;
77978;SDS011;67169;50.268;8.694;2024-01-30T05:02:30;8.43;;;5.72;;
77978;SDS011;67169;50.268;8.694;2024-01-30T05:04:57;9.23;;;4.90;;
77978;SDS011;67169;50.268;8.694;2024-01-30T05:07:24;9.10;;;5.25;;
77978;SDS011;67169;50.268;8.694;2024-01-30T05:09:50;10.95;;;6.68;;
77978;SDS011;67169;50.268;8.694;2024-01-30T05:12:17;8.05;;;4.88;;
77978;SDS011;67169;50.268;8.694;2024-01-30T05:14:45;7.28;;;5.68;;
77978;SDS011;67169;50.268;8.694;2024-01-30T05:17:11;6.05;;;4.22;;
77978;SDS011;67169;50.268;8.694;2024-01-30T05:19:38;5.82;;;4.43;;
77978;SDS011;67169;50.268;8.694;2024-01-30T05:22:05;9.55;;;5.57;;
77978;SDS011;67169;50.268;8.694;2024-01-30T05:24:32;8.68;;;6.20;;
77978;SDS011;67169;50.268;8.694;2024-01-30T05:26:58;8.57;;;5.50;;
77978;SDS011;67169;50.268;8.694;2024-01-30T05:29:25;8.63;;;5.18;;
77978;SDS011;67169;50.268;8.694;2024-01-30T05:31:54;11.40;;;5.90;;
77978;SDS011;67169;50.268;8.694;2024-01-30T05:34:21;12.18;;;5.20;;
77978;SDS011;67169;50.268;8.694;2024-01-30T05:36:47;8.90;;;5.28;;
77978;SDS011;67169;50.268;8.694;2024-01-30T05:39:14;11.57;;;5.82;;
77978;SDS011;67169;50.268;8.694;2024-01-30T05:41:40;9.05;;;4.97;;
77978;SDS011;67169;50.268;8.694;2024-01-30T05:44:07;9.18;;;4.72;;
77978;SDS011;67169;50.268;8.694;2024-01-30T05:46:35;5.63;;;5.05;;
77978;SDS011;67169;50.268;8.694;2024-01-30T05:49:03;10.82;;;6.90;;
77978;SDS011;67169;50.268;8.694;2024-01-30T05:51:29;11.73;;;6.20;;
77978;SDS011;67169;50.268;8.694;2024-01-30T05:53:56;7.43;;;5.40;;
77978;SDS011;67169;50.268;8.694;2024-01-30T05:56:23;10.35;;;5.50;;
77978;SDS011;67169;50.268;8.694;2024-01-30T05:58:49;8.20;;;4.45;;
77978;SDS011;67169;50.268;8.694;2024-01-30T06:01:16;9.18;;;4.68;;
77978;SDS011;67169;50.268;8.694;2024-01-30T06:03:43;8.15;;;5.15;;
77978;SDS011;67169;50.268;8.694;2024-01-30T06:06:10;9.65;;;5.95;;
77978;SDS011;67169;50.268;8.694;2024-01-30T06:08:37;9.88;;;4.65;;
77978;SDS011;67169;50.268;8.694;2024-01-30T06:11:03;10.80;;;5.32;;
77978;SDS011;67169;50.268;8.694;2024-01-30T06:13:30;8.95;;;4.90;;
77978;SDS011;67169;50.268;8.694;2024-01-30T06:15:58;10.63;;;5.40;;
77978;SDS011;67169;50.268;8.694;2024-01-30T06:18:24;8.85;;;5.93;;
77978;SDS011;67169;50.268;8.694;2024-01-30T06:20:52;10.43;;;5.63;;
77978;SDS011;67169;50.268;8.694;2024-01-30T06:23:20;11.82;;;5.75;;
77978;SDS011;67169;50.268;8.694;2024-01-30T06:25:46;9.38;;;6.45;;
77978;SDS011;67169;50.268;8.694;2024-01-30T06:28:13;13.32;;;5.75;;
77978;SDS011;67169;50.268;8.694;2024-01-30T06:30:39;9.15;;;5.00;;
77978;SDS011;67169;50.268;8.694;2024-01-30T06:33:06;13.20;;;7.22;;
77978;SDS011;67169;50.268;8.694;2024-01-30T06:35:32;10.05;;;6.45;;
77978;SDS011;67169;50.268;8.694;2024-01-30T06:38:01;12.73;;;6.85;;
77978;SDS011;67169;50.268;8.694;2024-01-30T06:40:29;10.52;;;7.47;;
77978;SDS011;67169;50.268;8.694;2024-01-30T06:42:55;8.85;;;6.68;;
77978;SDS011;67169;50.268;8.694;2024-01-30T06:45:22;12.80;;;7.07;;
77978;SDS011;67169;50.268;8.694;2024-01-30T06:47:48;12.68;;;6.05;;
77978;SDS011;67169;50.268;8.694;2024-01-30T06:50:15;7.10;;;5.32;;
77978;SDS011;67169;50.268;8.694;2024-01-30T06:52:41;8.00;;;6.13;;
77978;SDS011;67169;50.268;8.694;2024-01-30T06:55:09;14.43;;;6.68;;
77978;SDS011;67169;50.268;8.694;2024-01-30T06:57:37;9.18;;;6.68;;
77978;SDS011;67169;50.268;8.694;2024-01-30T07:00:04;9.85;;;6.13;;
77978;SDS011;67169;50.268;8.694;2024-01-30T07:02:32;10.63;;;6.70;;
77978;SDS011;67169;50.268;8.694;2024-01-30T07:04:58;10.80;;;6.88;;
77978;SDS011;67169;50.268;8.694;2024-01-30T07:07:25;10.20;;;6.10;;
77978;SDS011;67169;50.268;8.694;2024-01-30T07:09:51;16.35;;;7.90;;
77978;SDS011;67169;50.268;8.694;2024-01-30T07:12:21;11.82;;;6.72;;
77978;SDS011;67169;50.268;8.694;2024-01-30T07:14:49;11.05;;;5.63;;
77978;SDS011;67169;50.268;8.694;2024-01-30T07:17:16;9.27;;;5.60;;
77978;SDS011;67169;50.268;8.694;2024-01-30T07:19:42;15.27;;;8.20;;
77978;SDS011;67169;50.268;8.694;2024-01-30T07:22:09;12.13;;;8.27;;
77978;SDS011;67169;50.268;8.694;2024-01-30T07:24:35;10.68;;;6.45;;
77978;SDS011;67169;50.268;8.694;2024-01-30T07:27:02;6.90;;;5.05;;
77978;SDS011;67169;50.268;8.694;2024-01-30T07:29:29;11.05;;;7.60;;
77978;SDS011;67169;50.268;8.694;2024-01-30T07:31:57;9.25;;;6.13;;
77978;SDS011;67169;50.268;8.694;2024-01-30T07:34:24;12.77;;;6.53;;
77978;SDS011;67169;50.268;8.694;2024-01-30T07:36:50;15.43;;;7.32;;
77978;SDS011;67169;50.268;8.694;2024-01-30T07:39:17;11.60;;;6.10;;
77978;SDS011;67169;50.268;8.694;2024-01-30T07:41:43;10.95;;;7.70;;
77978;SDS011;67169;50.268;8.694;2024-01-30T07:44:10;13.63;;;7.70;;
77978;SDS011;67169;50.268;8.694;2024-01-30T07:46:36;12.60;;;6.55;;
77978;SDS011;67169;50.268;8.694;2024-01-30T07:49:04;9.38;;;5.55;;
77978;SDS011;67169;50.268;8.694;2024-01-30T07:51:31;9.45;;;7.25;;
77978;SDS011;67169;50.268;8.694;2024-01-30T07:53:58;17.52;;;7.95;;
77978;SDS011;67169;50.268;8.694;2024-01-30T07:56:24;9.30;;;6.03;;
77978;SDS011;67169;50.268;8.694;2024-01-30T07:58:51;6.97;;;5.10;;
77978;SDS011;67169;50.268;8.694;2024-01-30T08:01:18;10.48;;;6.78;;
77978;SDS011;67169;50.268;8.694;2024-01-30T08:03:45;12.27;;;7.25;;
77978;SDS011;67169;50.268;8.694;2024-01-30T08:06:13;12.73;;;8.10;;
77978;SDS011;67169;50.268;8.694;2024-01-30T08:08:39;15.43;;;6.95;;
77978;SDS011;67169;50.268;8.694;2024-01-30T08:11:06;16.48;;;8.75;;
77978;SDS011;67169;50.268;8.694;2024-01-30T08:13:32;14.05;;;6.78;;
77978;SDS011;67169;50.268;8.694;2024-01-30T08:15:59;14.43;;;8.93;;
77978;SDS011;67169;50.268;8.694;2024-01-30T08:18:25;9.68;;;5.85;;
77978;SDS011;67169;50.268;8.694;2024-01-30T08:20:52;14.50;;;9.43;;
77978;SDS011;67169;50.268;8.694;2024-01-30T08:23:20;13.50;;;7.07;;
77978;SDS011;67169;50.268;8.694;2024-01-30T08:25:46;14.40;;;9.90;;
77978;SDS011;67169;50.268;8.694;2024-01-30T08:28:13;11.32;;;7.78;;
77978;SDS011;67169;50.268;8.694;2024-01-30T08:30:39;12.60;;;7.00;;
77978;SDS011;67169;50.268;8.694;2024-01-30T08:33:06;13.88;;;8.75;;
77978;SDS011;67169;50.268;8.694;2024-01-30T08:35:32;13.25;;;9.35;;
77978;SDS011;67169;50.268;8.694;2024-01-30T08:37:59;12.75;;;9.10;;
77978;SDS011;67169;50.268;8.694;2024-01-30T08:40:27;13.85;;;9.38;;
77978;SDS011;67169;50.268;8.694;2024-01-30T08:42:53;22.05;;;9.65;;
77978;SDS011;67169;50.268;8.694;2024-01-30T08:45:20;7.00;;;6.30;;
77978;SDS011;67169;50.268;8.694;2024-01-30T08:47:46;11.07;;;9.10;;
77978;SDS011;67169;50.268;8.694;2024-01-30T08:50:14;7.35;;;5.55;;
77978;SDS011;67169;50.268;8.694;2024-01-30T08:52:40;13.05;;;9.20;;
77978;SDS011;67169;50.268;8.694;2024-01-30T08:55:07;15.15;;;7.72;;
77978;SDS011;67169;50.268;8.694;2024-01-30T08:57:35;16.95;;;9.65;;
77978;SDS011;67169;50.268;8.694;2024-01-30T09:00:02;11.68;;;8.55;;
77978;SDS011;67169;50.268;8.694;2024-01-30T09:02:31;6.28;;;4.97;;
77978;SDS011;67169;50.268;8.694;2024-01-30T09:04:58;13.30;;;7.90;;
77978;SDS011;67169;50.268;8.694;2024-01-30T09:07:24;11.50;;;8.20;;
77978;SDS011;67169;50.268;8.694;2024-01-30T09:09:51;15.32;;;9.48;;
77978;SDS011;67169;50.268;8.694;2024-01-30T09:12:17;11.82;;;7.72;;
77978;SDS011;67169;50.268;8.694;2024-01-30T09:14:45;13.95;;;9.55;;
77978;SDS011;67169;50.268;8.694;2024-01-30T09:17:12;14.98;;;9.35;;
77978;SDS011;67169;50.268;8.694;2024-01-30T09:19:40;15.43;;;8.98;;
77978;SDS011;67169;50.268;8.694;2024-01-30T09:22:06;11.75;;;7.28;;
77978;SDS011;67169;50.268;8.694;2024-01-30T09:24:33;15.63;;;9.63;;
77978;SDS011;67169;50.268;8.694;2024-01-30T09:26:59;19.15;;;10.57;;
77978;SDS011;67169;50.268;8.694;2024-01-30T09:29:26;26.08;;;10.88;;
77978;SDS011;67169;50.268;8.694;2024-01-30T09:31:54;16.67;;;8.52;;
77978;SDS011;67169;50.268;8.694;2024-01-30T09:34:21;16.27;;;10.75;;
77978;SDS011;67169;50.268;8.694;2024-01-30T09:36:47;16.33;;;9.30;;
77978;SDS011;67169;50.268;8.694;2024-01-30T09:39:14;12.90;;;8.80;;
77978;SDS011;67169;50.268;8.694;2024-01-30T09:41:42;11.07;;;8.45;;
77978;SDS011;67169;50.268;8.694;2024-01-30T09:44:11;13.85;;;8.02;;
77978;SDS011;67169;50.268;8.694;2024-01-30T09:46:39;18.42;;;9.45;;
77978;SDS011;67169;50.268;8.694;2024-01-30T09:49:08;15.13;;;9.27;;
77978;SDS011;67169;50.268;8.694;2024-01-30T09:51:35;15.80;;;8.20;;
77978;SDS011;67169;50.268;8.694;2024-01-30T09:54:02;7.97;;;5.93;;
77978;SDS011;67169;50.268;8.694;2024-01-30T09:56:29;12.63;;;9.43;;
77978;SDS011;67169;50.268;8.694;2024-01-30T09:58:55;16.52;;;9.30;;
77978;SDS011;67169;50.268;8.694;2024-01-30T10:01:22;11.73;;;9.10;;
77978;SDS011;67169;50.268;8.694;2024-01-30T10:03:50;18.27;;;10.88;;
77978;SDS011;67169;50.268;8.694;2024-01-30T10:06:19;13.45;;;8.20;;
77978;SDS011;67169;50.268;8.694;2024-01-30T10:08:47;17.98;;;10.57;;
77978;SDS011;67169;50.268;8.694;2024-01-30T10:11:14;17.48;;;10.93;;
77978;SDS011;67169;50.268;8.694;2024-01-30T10:13:40;20.20;;;12.40;;
77978;SDS011;67169;50.268;8.694;2024-01-30T10:16:07;18.60;;;11.27;;
77978;SDS011;67169;50.268;8.694;2024-01-30T10:18:33;14.35;;;9.13;;
77978;SDS011;67169;50.268;8.694;2024-01-30T10:21:00;22.05;;;9.70;;
77978;SDS011;67169;50.268;8.694;2024-01-30T10:23:29;13.38;;;9.20;;
77978;SDS011;67169;50.268;8.694;2024-01-30T10:25:56;7.57;;;5.40;;
77978;SDS011;67169;50.268;8.694;2024-01-30T10:28:23;14.88;;;8.98;;
77978;SDS011;67169;50.268;8.694;2024-01-30T10:30:57;11.50;;;7.47;;
77978;SDS011;67169;50.268;8.694;2024-01-30T10:33:25;15.07;;;9.45;;
77978;SDS011;67169;50.268;8.694;2024-01-30T10:35:53;16.58;;;9.07;;
77978;SDS011;67169;50.268;8.694;2024-01-30T10:38:24;12.55;;;8.13;;
77978;SDS011;67169;50.268;8.694;2024-01-30T10:40:56;11.35;;;7.28;;
77978;SDS011;67169;50.268;8.694;2024-01-30T10:43:23;12.13;;;7.38;;
77978;SDS011;67169;50.268;8.694;2024-01-30T10:45:56;11.38;;;9.35;;
77978;SDS011;67169;50.268;8.694;2024-01-30T10:48:29;13.77;;;8.95;;
77978;SDS011;67169;50.268;8.694;2024-01-30T10:50:56;9.00;;;7.68;;
77978;SDS011;67169;50.268;8.694;2024-01-30T10:53:25;18.85;;;9.23;;
77978;SDS011;67169;50.268;8.694;2024-01-30T10:55:53;16.10;;;9.23;;
77978;SDS011;67169;50.268;8.694;2024-01-30T10:58:23;20.27;;;10.50;;
77978;SDS011;67169;50.268;8.694;2024-01-30T11:00:51;15.85;;;10.02;;
77978;SDS011;67169;50.268;8.694;2024-01-30T11:03:18;15.52;;;8.95;;
77978;SDS011;67169;50.268;8.694;2024-01-30T11:05:48;17.30;;;9.88;;
77978;SDS011;67169;50.268;8.694;2024-01-30T11:08:22;9.43;;;7.57;;
77978;SDS011;67169;50.268;8.694;2024-01-30T11:10:54;12.75;;;8.43;;
77978;SDS011;67169;50.268;8.694;2024-01-30T11:13:26;14.07;;;8.48;;
77978;SDS011;67169;50.268;8.694;2024-01-30T11:15:54;12.35;;;8.25;;
77978;SDS011;67169;50.268;8.694;2024-01-30T11:18:24;15.82;;;10.07;;
77978;SDS011;67169;50.268;8.694;2024-01-30T11:20:51;14.25;;;9.50;;
77978;SDS011;67169;50.268;8.694;2024-01-30T11:23:18;16.92;;;8.85;;
77978;SDS011;67169;50.268;8.694;2024-01-30T11:25:45;13.60;;;9.13;;
77978;SDS011;67169;50.268;8.694;2024-01-30T11:28:14;14.27;;;9.02;;
77978;SDS011;67169;50.268;8.694;2024-01-30T11:30:41;14.38;;;9.50;;
77978;SDS011;67169;50.268;8.694;2024-01-30T11:33:09;16.13;;;10.10;;
77978;SDS011;67169;50.268;8.694;2024-01-30T11:35:37;13.85;;;9.48;;
77978;SDS011;67169;50.268;8.694;2024-01-30T11:38:06;15.75;;;9.57;;
77978;SDS011;67169;50.268;8.694;2024-01-30T11:40:34;18.38;;;8.85;;
77978;SDS011;67169;50.268;8.694;2024-01-30T11:43:02;18.83;;;10.48;;
77978;SDS011;67169;50.268;8.694;2024-01-30T11:45:32;12.60;;;8.50;;
77978;SDS011;67169;50.268;8.694;2024-01-30T11:47:59;12.57;;;6.25;;
77978;SDS011;67169;50.268;8.694;2024-01-30T11:50:28;12.32;;;8.88;;
77978;SDS011;67169;50.268;8.694;2024-01-30T11:52:55;15.93;;;9.77;;
77978;SDS011;67169;50.268;8.694;2024-01-30T11:55:22;10.93;;;8.18;;
77978;SDS011;67169;50.268;8.694;2024-01-30T11:57:49;14.27;;;10.05;;
77978;SDS011;67169;50.268;8.694;2024-01-30T12:00:16;17.65;;;9.45;;
77978;SDS011;67169;50.268;8.694;2024-01-30T12:02:50;13.88;;;8.48;;
77978;SDS011;67169;50.268;8.694;2024-01-30T12:05:20;13.95;;;8.18;;
77978;SDS011;67169;50.268;8.694;2024-01-30T12:07:47;15.52;;;9.05;;
77978;SDS011;67169;50.268;8.694;2024-01-30T12:10:14;13.55;;;9.43;;
77978;SDS011;67169;50.268;8.694;2024-01-30T12:12:41;11.70;;;7.40;;
77978;SDS011;67169;50.268;8.694;2024-01-30T12:17:36;11.32;;;7.78;;
77978;SDS011;67169;50.268;8.694;2024-01-30T12:20:04;12.48;;;8.68;;
77978;SDS011;67169;50.268;8.694;2024-01-30T12:22:32;15.13;;;7.65;;
77978;SDS011;67169;50.268;8.694;2024-01-30T12:27:26;15.80;;;8.48;;
77978;SDS011;67169;50.268;8.694;2024-01-30T12:29:56;16.17;;;9.55;;
77978;SDS011;67169;50.268;8.694;2024-01-30T12:32:23;10.15;;;6.88;;
77978;SDS011;67169;50.268;8.694;2024-01-30T12:34:50;11.63;;;8.65;;
77978;SDS011;67169;50.268;8.694;2024-01-30T12:37:18;14.02;;;10.52;;
77978;SDS011;67169;50.268;8.694;2024-01-30T12:39:47;13.63;;;7.20;;
77978;SDS011;67169;50.268;8.694;2024-01-30T12:42:14;11.10;;;8.27;;
77978;SDS011;67169;50.268;8.694;2024-01-30T12:44:41;11.93;;;7.85;;
77978;SDS011;67169;50.268;8.694;2024-01-30T12:47:08;13.02;;;9.63;;
77978;SDS011;67169;50.268;8.694;2024-01-30T12:49:35;10.80;;;5.95;;
77978;SDS011;67169;50.268;8.694;2024-01-30T12:52:01;12.70;;;7.82;;
77978;SDS011;67169;50.268;8.694;2024-01-30T12:54:29;9.07;;;5.10;;
77978;SDS011;67169;50.268;8.694;2024-01-30T12:56:56;9.73;;;7.15;;
77978;SDS011;67169;50.268;8.694;2024-01-30T12:59:23;12.45;;;7.13;;
77978;SDS011;67169;50.268;8.694;2024-01-30T13:01:49;12.85;;;9.02;;
77978;SDS011;67169;50.268;8.694;2024-01-30T13:04:16;13.48;;;7.60;;
77978;SDS011;67169;50.268;8.694;2024-01-30T13:06:42;14.73;;;7.80;;
77978;SDS011;67169;50.268;8.694;2024-01-30T13:09:09;11.57;;;7.10;;
77978;SDS011;67169;50.268;8.694;2024-01-30T13:11:37;11.50;;;7.28;;
77978;SDS011;67169;50.268;8.694;2024-01-30T13:14:03;10.85;;;7.32;;
77978;SDS011;67169;50.268;8.694;2024-01-30T13:16:30;7.35;;;5.00;;
77978;SDS011;67169;50.268;8.694;2024-01-30T13:18:57;12.60;;;7.45;;
77978;SDS011;67169;50.268;8.694;2024-01-30T13:21:23;11.75;;;6.60;;
77978;SDS011;67169;50.268;8.694;2024-01-30T13:23:50;12.30;;;7.00;;
77978;SDS011;67169;50.268;8.694;2024-01-30T13:26:19;13.93;;;7.15;;
77978;SDS011;67169;50.268;8.694;2024-01-30T13:28:47;10.23;;;5.90;;
77978;SDS011;67169;50.268;8.694;2024-01-30T13:31:14;8.80;;;7.22;;
77978;SDS011;67169;50.268;8.694;2024-01-30T13:33:41;10.32;;;6.95;;
77978;SDS011;67169;50.268;8.694;2024-01-30T13:36:08;8.95;;;5.50;;
77978;SDS011;67169;50.268;8.694;2024-01-30T13:38:35;9.18;;;6.25;;
77978;SDS011;67169;50.268;8.694;2024-01-30T13:41:02;10.07;;;6.53;;
77978;SDS011;67169;50.268;8.694;2024-01-30T13:43:28;10.88;;;6.78;;
77978;SDS011;67169;50.268;8.694;2024-01-30T13:45:56;11.57;;;7.30;;
77978;SDS011;67169;50.268;8.694;2024-01-30T13:48:23;11.93;;;7.72;;
77978;SDS011;67169;50.268;8.694;2024-01-30T13:50:49;10.35;;;5.45;;
77978;SDS011;67169;50.268;8.694;2024-01-30T13:53:16;10.25;;;6.70;;
77978;SDS011;67169;50.268;8.694;2024-01-30T13:55:43;9.25;;;7.97;;
77978;SDS011;67169;50.268;8.694;2024-01-30T13:58:09;12.07;;;7.28;;
77978;SDS011;67169;50.268;8.694;2024-01-30T14:00:36;12.20;;;6.38;;
77978;SDS011;67169;50.268;8.694;2024-01-30T14:03:04;9.93;;;7.32;;
77978;SDS011;67169;50.268;8.694;2024-01-30T14:05:31;10.90;;;7.13;;
77978;SDS011;67169;50.268;8.694;2024-01-30T14:07:58;9.45;;;7.22;;
77978;SDS011;67169;50.268;8.694;2024-01-30T14:10:26;13.05;;;7.50;;
77978;SDS011;67169;50.268;8.694;2024-01-30T14:12:52;8.95;;;5.60;;
77978;SDS011;67169;50.268;8.694;2024-01-30T14:15:19;12.40;;;6.97;;
77978;SDS011;67169;50.268;8.694;2024-01-30T14:17:46;11.38;;;8.02;;
77978;SDS011;67169;50.268;8.694;2024-01-30T14:22:42;9.27;;;6.03;;
77978;SDS011;67169;50.268;8.694;2024-01-30T14:25:09;9.68;;;3.97;;
77978;SDS011;67169;50.268;8.694;2024-01-30T14:27:37;10.57;;;6.15;;
77978;SDS011;67169;50.268;8.694;2024-01-30T14:30:04;12.43;;;6.75;;
77978;SDS011;67169;50.268;8.694;2024-01-30T14:32:31;13.85;;;8.30;;
77978;SDS011;67169;50.268;8.694;2024-01-30T14:34:58;11.95;;;7.10;;
77978;SDS011;67169;50.268;8.694;2024-01-30T14:37:26;15.80;;;7.63;;
77978;SDS011;67169;50.268;8.694;2024-01-30T14:39:55;11.48;;;6.93;;
77978;SDS011;67169;50.268;8.694;2024-01-30T14:42:21;11.75;;;7.53;;
77978;SDS011;67169;50.268;8.694;2024-01-30T14:44:48;13.80;;;6.57;;
77978;SDS011;67169;50.268;8.694;2024-01-30T14:47:15;9.73;;;7.07;;
77978;SDS011;67169;50.268;8.694;2024-01-30T14:49:41;12.82;;;7.15;;